Time;durP1;ratioP1;P1;durP2;ratioP2;P2;SDS_P1;SDS_P2;PMS_P1;PMS_P2;Temp;Humidity;BMP_temperature;BMP_pressure;BME280_temperature;BME280_humidity;BME280_pressure;Samples;Min_cycle;Max_cycle;Signal;HPM_P1;HPM_P2
2022/10/12 00:02:07;;;;;;;7.97;3.35;;;;;;;;;;6117529;23;19998;-74
2022/10/12 00:04:33;;;;;;;14.05;4.65;;;;;;;;;;6120089;23;20018;-74
2022/10/12 00:06:59;;;;;;;10.63;4.20;;;;;;;;;;6119702;23;20005;-74
2022/10/12 00:09:25;;;;;;;9.90;3.67;;;;;;;;;;6118429;23;20010;-74
2022/10/12 00:11:51;;;;;;;11.80;3.63;;;;;;;;;;6119358;23;20006;-74
2022/10/12 00:14:17;;;;;;;12.25;4.15;;;;;;;;;;6118629;23;20060;-74
2022/10/12 00:16:44;;;;;;;13.07;3.78;;;;;;;;;;6117121;23;20002;-73
2022/10/12 00:19:12;;;;;;;11.52;4.15;;;;;;;;;;6118478;23;20063;-74
2022/10/12 00:21:38;;;;;;;13.25;3.88;;;;;;;;;;6118944;23;20451;-74
2022/10/12 00:24:05;;;;;;;11.23;3.88;;;;;;;;;;6116940;23;20017;-74
2022/10/12 00:26:32;;;;;;;10.32;3.38;;;;;;;;;;6119131;23;20013;-74
2022/10/12 00:28:59;;;;;;;11.30;3.80;;;;;;;;;;6117896;23;20006;-74
2022/10/12 00:31:26;;;;;;;8.75;3.60;;;;;;;;;;6118811;23;19998;-74
2022/10/12 00:33:52;;;;;;;9.55;3.67;;;;;;;;;;6116967;23;20009;-73
2022/10/12 00:36:25;;;;;;;10.18;3.50;;;;;;;;;;6118451;23;20125;-74
2022/10/12 00:38:52;;;;;;;11.23;3.78;;;;;;;;;;6118136;23;20010;-74
2022/10/12 00:41:20;;;;;;;13.85;4.63;;;;;;;;;;6118918;23;20005;-74
2022/10/12 00:43:47;;;;;;;6.47;3.00;;;;;;;;;;6120068;23;20017;-75
2022/10/12 00:46:13;;;;;;;12.80;3.90;;;;;;;;;;6119056;23;20125;-74
2022/10/12 00:48:40;;;;;;;10.88;3.25;;;;;;;;;;6119985;23;20010;-74
2022/10/12 00:51:08;;;;;;;10.50;3.08;;;;;;;;;;6120603;23;20419;-74
2022/10/12 00:53:42;;;;;;;13.85;3.50;;;;;;;;;;6120346;23;19998;-74
2022/10/12 00:56:12;;;;;;;10.65;3.40;;;;;;;;;;6116459;23;20021;-74
2022/10/12 00:58:38;;;;;;;9.05;3.15;;;;;;;;;;6090563;23;20016;-74
2022/10/12 01:01:05;;;;;;;14.27;3.38;;;;;;;;;;6120813;23;20028;-73
2022/10/12 01:03:31;;;;;;;15.50;4.57;;;;;;;;;;6120139;23;20093;-74
2022/10/12 01:05:59;;;;;;;12.55;3.05;;;;;;;;;;6120987;23;20002;-73
2022/10/12 01:08:25;;;;;;;10.48;2.88;;;;;;;;;;6118714;23;20427;-74
2022/10/12 01:10:51;;;;;;;18.25;3.95;;;;;;;;;;6120100;23;20010;-74
2022/10/12 01:13:18;;;;;;;12.10;3.25;;;;;;;;;;6120491;23;20021;-74
2022/10/12 01:15:51;;;;;;;13.30;3.92;;;;;;;;;;6118278;23;20882;-73
2022/10/12 01:18:30;;;;;;;10.90;3.13;;;;;;;;;;6120457;23;20057;-74
2022/10/12 01:21:05;;;;;;;16.40;3.88;;;;;;;;;;6119527;23;20424;-74
2022/10/12 01:23:37;;;;;;;15.93;3.65;;;;;;;;;;6119668;23;20057;-74
2022/10/12 01:26:06;;;;;;;12.05;3.42;;;;;;;;;;6120102;23;20013;-74
2022/10/12 01:28:39;;;;;;;9.85;3.25;;;;;;;;;;6118233;23;20435;-73
2022/10/12 01:31:11;;;;;;;11.68;3.13;;;;;;;;;;6120237;23;20058;-74
2022/10/12 01:33:43;;;;;;;10.75;3.28;;;;;;;;;;6120104;23;20001;-74
2022/10/12 01:36:15;;;;;;;13.73;3.33;;;;;;;;;;6118225;23;20025;-74
2022/10/12 01:39:00;;;;;;;12.45;3.22;;;;;;;;;;6119471;23;20427;-74
2022/10/12 01:41:29;;;;;;;15.80;3.80;;;;;;;;;;6120866;23;20069;-74
2022/10/12 01:43:55;;;;;;;13.32;2.97;;;;;;;;;;6119842;23;20010;-74
2022/10/12 01:46:25;;;;;;;12.18;3.63;;;;;;;;;;6118639;23;20002;-74
2022/10/12 01:48:56;;;;;;;15.75;4.05;;;;;;;;;;6119827;23;20075;-74
2022/10/12 01:51:27;;;;;;;11.93;4.13;;;;;;;;;;6093888;23;20002;-74
2022/10/12 01:54:12;;;;;;;13.00;3.72;;;;;;;;;;6093895;23;20076;-75
2022/10/12 01:56:38;;;;;;;17.90;3.72;;;;;;;;;;6118081;23;20359;-74
2022/10/12 01:59:09;;;;;;;13.43;3.78;;;;;;;;;;6119481;23;20006;-74
2022/10/12 02:01:35;;;;;;;10.23;3.75;;;;;;;;;;6119658;23;20463;-74
2022/10/12 02:04:10;;;;;;;11.40;4.15;;;;;;;;;;6119912;23;20010;-74
2022/10/12 02:06:39;;;;;;;8.10;3.35;;;;;;;;;;6118211;23;20076;-74
2022/10/12 02:09:11;;;;;;;12.23;3.67;;;;;;;;;;6119700;23;20037;-74
2022/10/12 02:11:38;;;;;;;13.27;3.10;;;;;;;;;;6119639;23;20010;-74
2022/10/12 02:14:08;;;;;;;13.05;3.95;;;;;;;;;;6119400;23;20010;-74
2022/10/12 02:16:37;;;;;;;10.38;3.83;;;;;;;;;;6119666;23;20084;-73
2022/10/12 02:19:05;;;;;;;11.55;5.00;;;;;;;;;;6118574;23;20006;-74
2022/10/12 02:21:32;;;;;;;12.65;3.90;;;;;;;;;;6120031;23;20002;-74
2022/10/12 02:24:01;;;;;;;13.15;4.13;;;;;;;;;;6119668;23;20085;-74
2022/10/12 02:26:28;;;;;;;9.88;4.03;;;;;;;;;;6120184;23;20344;-74
2022/10/12 02:28:54;;;;;;;13.93;4.10;;;;;;;;;;6119030;23;20021;-74
2022/10/12 02:31:39;;;;;;;10.68;3.83;;;;;;;;;;6118105;23;20008;-74
2022/10/12 02:34:05;;;;;;;17.90;4.57;;;;;;;;;;6119129;23;19998;-74
2022/10/12 02:36:41;;;;;;;12.30;3.80;;;;;;;;;;6119881;23;20606;-74
2022/10/12 02:39:14;;;;;;;10.95;4.80;;;;;;;;;;6117863;23;20304;-74
2022/10/12 02:41:43;;;;;;;13.65;3.88;;;;;;;;;;6119715;23;20002;-74
2022/10/12 02:44:11;;;;;;;11.27;4.05;;;;;;;;;;6114890;23;20018;-73
2022/10/12 02:46:39;;;;;;;14.80;3.70;;;;;;;;;;6113503;23;20026;-74
2022/10/12 02:49:06;;;;;;;12.82;3.40;;;;;;;;;;6113582;23;20372;-74
2022/10/12 02:51:33;;;;;;;11.23;4.10;;;;;;;;;;6109788;23;19998;-74
2022/10/12 02:53:59;;;;;;;10.60;4.35;;;;;;;;;;6113708;23;20009;-74
2022/10/12 02:56:25;;;;;;;12.85;3.45;;;;;;;;;;6113148;23;20014;-74
2022/10/12 02:58:52;;;;;;;8.75;3.97;;;;;;;;;;6113178;23;20009;-74
2022/10/12 03:01:18;;;;;;;11.80;3.80;;;;;;;;;;6087841;23;20068;-74
2022/10/12 03:03:45;;;;;;;15.50;4.88;;;;;;;;;;6113564;23;20366;-73
2022/10/12 03:06:11;;;;;;;10.70;3.53;;;;;;;;;;6085515;23;20002;-74
2022/10/12 03:08:38;;;;;;;9.52;3.42;;;;;;;;;;6113112;23;20016;-74
2022/10/12 03:11:05;;;;;;;18.65;3.97;;;;;;;;;;6113367;23;20010;-74
2022/10/12 03:13:31;;;;;;;13.55;4.30;;;;;;;;;;6111980;23;20016;-75
2022/10/12 03:16:05;;;;;;;14.23;4.45;;;;;;;;;;6113859;23;20002;-73
2022/10/12 03:18:31;;;;;;;12.32;4.45;;;;;;;;;;6083787;23;20620;-74
2022/10/12 03:20:57;;;;;;;11.30;4.07;;;;;;;;;;6110278;23;20025;-73
2022/10/12 03:23:23;;;;;;;15.00;4.55;;;;;;;;;;6110708;23;20065;-74
2022/10/12 03:25:50;;;;;;;8.43;3.92;;;;;;;;;;6108637;23;20006;-74
2022/10/12 03:28:16;;;;;;;10.63;3.70;;;;;;;;;;6110614;23;20006;-74
2022/10/12 03:30:42;;;;;;;14.80;4.82;;;;;;;;;;6110309;23;20009;-74
2022/10/12 03:33:09;;;;;;;12.68;4.22;;;;;;;;;;6110425;23;20026;-74
2022/10/12 03:35:35;;;;;;;10.52;3.72;;;;;;;;;;6085349;23;20107;-74
2022/10/12 03:38:01;;;;;;;10.98;3.92;;;;;;;;;;6109631;23;20010;-74
2022/10/12 03:40:27;;;;;;;11.43;3.70;;;;;;;;;;6110675;23;20025;-74
2022/10/12 03:42:53;;;;;;;13.25;3.47;;;;;;;;;;6109914;23;20014;-74
2022/10/12 03:45:20;;;;;;;11.32;3.95;;;;;;;;;;6110034;23;20006;-75
2022/10/12 03:47:46;;;;;;;12.55;4.13;;;;;;;;;;6108622;23;20013;-74
2022/10/12 03:50:13;;;;;;;10.65;4.15;;;;;;;;;;6109826;23;20085;-74
2022/10/12 03:52:39;;;;;;;12.25;3.83;;;;;;;;;;6107215;23;20133;-74
2022/10/12 03:55:05;;;;;;;10.63;3.80;;;;;;;;;;6109771;23;20041;-74
2022/10/12 03:57:32;;;;;;;15.55;3.58;;;;;;;;;;6108678;23;20029;-74
2022/10/12 03:59:58;;;;;;;15.65;4.10;;;;;;;;;;6110123;23;20006;-74
2022/10/12 04:02:24;;;;;;;14.13;4.18;;;;;;;;;;6084889;23;20174;-73
2022/10/12 04:04:50;;;;;;;12.88;4.78;;;;;;;;;;6109553;23;20863;-74
2022/10/12 04:07:16;;;;;;;14.40;4.10;;;;;;;;;;6107886;23;20702;-74
2022/10/12 04:09:42;;;;;;;16.98;4.13;;;;;;;;;;6109604;23;20030;-74
2022/10/12 04:12:09;;;;;;;16.75;4.45;;;;;;;;;;6110661;23;20006;-74
2022/10/12 04:14:35;;;;;;;10.48;3.75;;;;;;;;;;6109426;23;20010;-74
2022/10/12 04:17:02;;;;;;;15.70;3.90;;;;;;;;;;6109327;23;20005;-74
2022/10/12 04:19:29;;;;;;;10.00;4.20;;;;;;;;;;6107650;23;20431;-74
2022/10/12 04:21:55;;;;;;;16.35;4.55;;;;;;;;;;6109395;23;20010;-74
2022/10/12 04:24:21;;;;;;;17.35;5.40;;;;;;;;;;6109574;23;20259;-74
2022/10/12 04:26:47;;;;;;;11.98;4.13;;;;;;;;;;6109964;23;20072;-75
2022/10/12 04:29:14;;;;;;;13.02;4.20;;;;;;;;;;6081440;23;20058;-74
2022/10/12 04:31:40;;;;;;;12.50;4.20;;;;;;;;;;6084136;23;20380;-74
2022/10/12 04:34:07;;;;;;;13.85;3.95;;;;;;;;;;6109538;23;20509;-74
2022/10/12 04:36:33;;;;;;;11.80;4.43;;;;;;;;;;6110186;23;20009;-74
2022/10/12 04:38:59;;;;;;;13.00;4.47;;;;;;;;;;6109632;23;20008;-75
2022/10/12 04:41:25;;;;;;;12.15;3.90;;;;;;;;;;6109534;23;20009;-74
2022/10/12 04:43:54;;;;;;;12.98;4.43;;;;;;;;;;6112295;23;20014;-74
2022/10/12 04:46:21;;;;;;;11.20;3.90;;;;;;;;;;6112225;23;20017;-75
2022/10/12 04:48:47;;;;;;;16.13;3.95;;;;;;;;;;6110122;23;20080;-75
2022/10/12 04:51:13;;;;;;;10.00;4.03;;;;;;;;;;6109525;23;20006;-76
2022/10/12 04:53:39;;;;;;;15.88;3.75;;;;;;;;;;6109693;23;20010;-76
2022/10/12 04:56:06;;;;;;;13.38;4.15;;;;;;;;;;6109799;23;20014;-76
2022/10/12 04:58:32;;;;;;;15.02;3.95;;;;;;;;;;6108019;23;20010;-76
2022/10/12 05:00:59;;;;;;;16.02;4.38;;;;;;;;;;6107183;23;20017;-76
2022/10/12 05:03:25;;;;;;;13.95;4.00;;;;;;;;;;6109274;23;20022;-77
2022/10/12 05:05:51;;;;;;;22.63;4.53;;;;;;;;;;6107797;23;20086;-76
2022/10/12 05:08:17;;;;;;;13.80;4.57;;;;;;;;;;6109721;23;20010;-76
2022/10/12 05:10:45;;;;;;;19.55;5.22;;;;;;;;;;6109040;23;20002;-76
2022/10/12 05:13:12;;;;;;;17.10;6.03;;;;;;;;;;6109615;23;20016;-76
2022/10/12 05:15:38;;;;;;;14.07;5.53;;;;;;;;;;6107589;23;20014;-76
2022/10/12 05:18:05;;;;;;;11.25;5.10;;;;;;;;;;6109760;23;20722;-76
2022/10/12 05:20:31;;;;;;;14.52;4.32;;;;;;;;;;6109032;23;20080;-75
2022/10/12 05:22:57;;;;;;;13.93;4.10;;;;;;;;;;6083999;23;20105;-76
2022/10/12 05:25:24;;;;;;;13.73;3.85;;;;;;;;;;6110126;23;20013;-75
2022/10/12 05:27:50;;;;;;;15.00;4.03;;;;;;;;;;6107967;23;20008;-76
2022/10/12 05:30:16;;;;;;;28.08;4.35;;;;;;;;;;6085694;23;20011;-76
2022/10/12 05:32:43;;;;;;;16.67;4.90;;;;;;;;;;6111124;23;20012;-76
2022/10/12 05:35:10;;;;;;;12.65;3.53;;;;;;;;;;6085878;23;20177;-76
2022/10/12 05:37:36;;;;;;;16.63;4.43;;;;;;;;;;6086152;23;20041;-76
2022/10/12 05:40:03;;;;;;;17.00;4.78;;;;;;;;;;6111152;23;20473;-76
2022/10/12 05:42:29;;;;;;;19.88;4.40;;;;;;;;;;6112185;23;20038;-76
2022/10/12 05:44:56;;;;;;;11.70;3.85;;;;;;;;;;6113436;23;20010;-76
2022/10/12 05:47:22;;;;;;;10.27;3.60;;;;;;;;;;6113914;23;20483;-76
2022/10/12 05:49:48;;;;;;;12.13;5.68;;;;;;;;;;6112807;23;20006;-78
2022/10/12 05:52:14;;;;;;;14.70;4.05;;;;;;;;;;6114550;23;20368;-76
2022/10/12 05:54:40;;;;;;;9.55;4.43;;;;;;;;;;6111800;23;20021;-76
2022/10/12 05:57:06;;;;;;;11.25;4.80;;;;;;;;;;6114271;23;20068;-76
2022/10/12 05:59:33;;;;;;;11.73;5.30;;;;;;;;;;6114142;23;20312;-76
2022/10/12 06:01:59;;;;;;;14.45;4.90;;;;;;;;;;6113580;23;20539;-77
2022/10/12 06:04:34;;;;;;;12.23;4.50;;;;;;;;;;6114998;23;20514;-76
2022/10/12 06:07:00;;;;;;;10.23;4.50;;;;;;;;;;6114898;23;20005;-76
2022/10/12 06:09:26;;;;;;;11.30;5.00;;;;;;;;;;6116584;23;20033;-74
2022/10/12 06:11:52;;;;;;;10.00;5.30;;;;;;;;;;6116949;23;20006;-77
2022/10/12 06:14:18;;;;;;;20.33;7.07;;;;;;;;;;6116990;23;20040;-80
2022/10/12 06:16:44;;;;;;;16.55;6.63;;;;;;;;;;6114669;23;20073;-77
2022/10/12 06:19:11;;;;;;;15.80;5.97;;;;;;;;;;6116178;23;20005;-74
2022/10/12 06:21:37;;;;;;;11.32;5.53;;;;;;;;;;6116901;23;20008;-74
2022/10/12 06:24:03;;;;;;;13.90;5.90;;;;;;;;;;6116448;23;20017;-73
2022/10/12 06:26:29;;;;;;;17.83;6.13;;;;;;;;;;6116304;23;20397;-77
2022/10/12 06:28:56;;;;;;;14.65;5.38;;;;;;;;;;6113845;23;20006;-74
2022/10/12 06:31:22;;;;;;;11.05;5.47;;;;;;;;;;6116295;23;20009;-75
2022/10/12 06:33:49;;;;;;;16.63;5.53;;;;;;;;;;6116738;23;20738;-75
2022/10/12 06:36:26;;;;;;;16.02;5.75;;;;;;;;;;6116747;23;20086;-75
2022/10/12 06:38:52;;;;;;;11.68;4.32;;;;;;;;;;6116312;23;20069;-74
2022/10/12 06:41:18;;;;;;;9.55;4.65;;;;;;;;;;6115157;23;20029;-75
2022/10/12 06:43:45;;;;;;;13.65;4.88;;;;;;;;;;6114476;23;20024;-75
2022/10/12 06:46:11;;;;;;;12.73;6.18;;;;;;;;;;6115978;23;20006;-74
2022/10/12 06:48:37;;;;;;;17.95;5.32;;;;;;;;;;6116304;23;20319;-74
2022/10/12 06:51:03;;;;;;;10.43;4.95;;;;;;;;;;6115398;23;19998;-74
2022/10/12 06:53:31;;;;;;;7.05;4.55;;;;;;;;;;6114444;23;20012;-74
2022/10/12 06:55:58;;;;;;;15.90;5.22;;;;;;;;;;6115582;23;20234;-76
2022/10/12 06:58:24;;;;;;;12.75;4.72;;;;;;;;;;6115707;23;20443;-76
2022/10/12 07:00:51;;;;;;;12.18;5.80;;;;;;;;;;6114291;23;20002;-74
2022/10/12 07:03:17;;;;;;;11.10;4.50;;;;;;;;;;6112703;23;20223;-74
2022/10/12 07:05:43;;;;;;;14.10;4.97;;;;;;;;;;6112622;23;20061;-74
2022/10/12 07:08:11;;;;;;;10.90;4.93;;;;;;;;;;6088440;23;20045;-74
2022/10/12 07:10:37;;;;;;;11.93;4.70;;;;;;;;;;6113278;23;20386;-73
2022/10/12 07:13:04;;;;;;;26.20;6.65;;;;;;;;;;6113925;23;20338;-73
2022/10/12 07:15:30;;;;;;;13.27;5.10;;;;;;;;;;6114275;23;20026;-74
2022/10/12 07:17:56;;;;;;;13.23;4.43;;;;;;;;;;6113529;23;20431;-75
2022/10/12 07:20:22;;;;;;;14.60;6.28;;;;;;;;;;6115252;23;20008;-74
2022/10/12 07:22:48;;;;;;;18.25;5.05;;;;;;;;;;6115665;23;20097;-75
2022/10/12 07:25:14;;;;;;;15.40;6.65;;;;;;;;;;6115513;23;20029;-74
2022/10/12 07:27:41;;;;;;;19.48;6.80;;;;;;;;;;6115866;23;20013;-74
2022/10/12 07:30:07;;;;;;;11.90;5.22;;;;;;;;;;6113428;23;20198;-74
2022/10/12 07:32:33;;;;;;;10.02;5.78;;;;;;;;;;6115385;23;20096;-78
2022/10/12 07:34:59;;;;;;;16.65;5.28;;;;;;;;;;6115224;23;20002;-73
2022/10/12 07:37:25;;;;;;;15.73;6.97;;;;;;;;;;6115808;23;20013;-73
2022/10/12 07:39:55;;;;;;;17.17;7.05;;;;;;;;;;6115279;23;20005;-74
2022/10/12 07:42:22;;;;;;;18.10;6.45;;;;;;;;;;6088984;23;20258;-74
2022/10/12 07:44:48;;;;;;;20.23;11.85;;;;;;;;;;6115440;23;20061;-74
2022/10/12 07:47:16;;;;;;;19.50;8.85;;;;;;;;;;6115510;23;20002;-74
2022/10/12 07:49:42;;;;;;;13.48;6.28;;;;;;;;;;6115079;23;20033;-73
2022/10/12 07:52:09;;;;;;;16.02;6.07;;;;;;;;;;6113377;23;20419;-74
2022/10/12 07:54:35;;;;;;;32.92;17.17;;;;;;;;;;6117929;23;20017;-73
2022/10/12 07:57:01;;;;;;;24.63;9.43;;;;;;;;;;6115121;23;20020;-74
2022/10/12 07:59:27;;;;;;;15.38;6.53;;;;;;;;;;6112697;23;20309;-73
2022/10/12 08:01:53;;;;;;;35.10;18.42;;;;;;;;;;6115395;23;20006;-74
2022/10/12 08:04:19;;;;;;;33.45;21.27;;;;;;;;;;6115711;23;20395;-74
2022/10/12 08:06:46;;;;;;;20.85;12.88;;;;;;;;;;6115320;23;20384;-74
2022/10/12 08:09:12;;;;;;;12.73;7.03;;;;;;;;;;6115453;23;20002;-74
2022/10/12 08:11:39;;;;;;;18.38;7.63;;;;;;;;;;6087718;23;20502;-74
2022/10/12 08:14:06;;;;;;;21.08;9.57;;;;;;;;;;6115863;23;20009;-74
2022/10/12 08:16:32;;;;;;;22.77;11.25;;;;;;;;;;6115743;23;20029;-73
2022/10/12 08:18:59;;;;;;;17.77;8.43;;;;;;;;;;6114702;23;20002;-74
2022/10/12 08:21:25;;;;;;;12.98;5.78;;;;;;;;;;6115583;23;20077;-74
2022/10/12 08:23:51;;;;;;;14.18;6.25;;;;;;;;;;6089851;23;20218;-73
2022/10/12 08:26:18;;;;;;;14.48;5.60;;;;;;;;;;6113789;23;20077;-73
2022/10/12 08:28:44;;;;;;;15.27;5.45;;;;;;;;;;6114851;23;20104;-79
2022/10/12 08:31:13;;;;;;;14.05;5.40;;;;;;;;;;6114780;23;20021;-73
2022/10/12 08:33:39;;;;;;;16.48;5.78;;;;;;;;;;6115215;23;20454;-74
2022/10/12 08:36:06;;;;;;;10.63;4.82;;;;;;;;;;6115584;23;20057;-73
2022/10/12 08:38:32;;;;;;;10.90;4.63;;;;;;;;;;6113620;23;20335;-73
2022/10/12 08:41:19;;;;;;;16.23;5.22;;;;;;;;;;6114747;23;20049;-73
2022/10/12 08:43:45;;;;;;;11.82;5.38;;;;;;;;;;6115588;23;20018;-72
2022/10/12 08:46:11;;;;;;;13.80;4.97;;;;;;;;;;6115373;23;19999;-72
2022/10/12 08:48:45;;;;;;;10.15;4.07;;;;;;;;;;6115001;23;20005;-72
2022/10/12 08:51:17;;;;;;;15.55;5.22;;;;;;;;;;6087377;23;20037;-73
2022/10/12 08:54:12;;;;;;;13.73;4.97;;;;;;;;;;6115397;23;20002;-73
2022/10/12 08:56:40;;;;;;;14.13;5.25;;;;;;;;;;6090917;23;20080;-72
2022/10/12 08:59:09;;;;;;;14.07;4.55;;;;;;;;;;6115148;23;20030;-72
2022/10/12 09:01:37;;;;;;;13.80;5.95;;;;;;;;;;6111407;23;20010;-73
2022/10/12 09:04:30;;;;;;;15.40;5.22;;;;;;;;;;6116330;23;20014;-72
2022/10/12 09:07:16;;;;;;;17.13;4.93;;;;;;;;;;6094511;23;20042;-73
2022/10/12 09:09:56;;;;;;;16.52;4.65;;;;;;;;;;6106760;23;20327;-72
2022/10/12 09:12:40;;;;;;;16.98;5.30;;;;;;;;;;6115453;23;20009;-72
2022/10/12 09:15:18;;;;;;;10.02;4.70;;;;;;;;;;6118267;23;20002;-72
2022/10/12 09:17:49;;;;;;;15.02;4.93;;;;;;;;;;6118657;23;20038;-72
2022/10/12 09:20:18;;;;;;;12.05;4.88;;;;;;;;;;6116825;23;20233;-72
2022/10/12 09:22:47;;;;;;;11.50;4.75;;;;;;;;;;6113432;23;20257;-72
2022/10/12 09:25:14;;;;;;;12.50;4.60;;;;;;;;;;6116968;23;20065;-71
2022/10/12 09:27:40;;;;;;;9.02;4.70;;;;;;;;;;6117329;23;20006;-72
2022/10/12 09:30:12;;;;;;;15.10;6.55;;;;;;;;;;6116129;23;20009;-72
2022/10/12 09:32:57;;;;;;;13.88;6.38;;;;;;;;;;6117361;23;20097;-74
2022/10/12 09:35:23;;;;;;;16.55;6.35;;;;;;;;;;6116622;23;20002;-74
2022/10/12 09:37:51;;;;;;;15.55;5.70;;;;;;;;;;6114837;23;20102;-72
2022/10/12 09:40:21;;;;;;;14.07;6.10;;;;;;;;;;6116734;23;20009;-73
2022/10/12 09:42:47;;;;;;;13.52;5.88;;;;;;;;;;6116525;23;20029;-72
2022/10/12 09:45:17;;;;;;;10.88;5.45;;;;;;;;;;6118586;23;20010;-72
2022/10/12 09:48:04;;;;;;;10.00;5.18;;;;;;;;;;6116831;23;20423;-72
2022/10/12 09:50:59;;;;;;;17.65;5.88;;;;;;;;;;6114912;23;20017;-72
2022/10/12 09:53:28;;;;;;;12.25;6.10;;;;;;;;;;6101485;23;20328;-71
2022/10/12 09:56:21;;;;;;;18.95;6.43;;;;;;;;;;6116384;23;20073;-71
2022/10/12 09:58:52;;;;;;;14.25;6.05;;;;;;;;;;6116436;23;20062;-72
2022/10/12 10:01:22;;;;;;;18.88;6.47;;;;;;;;;;6115841;23;20059;-75
2022/10/12 10:03:50;;;;;;;15.95;5.90;;;;;;;;;;6116755;23;20088;-74
2022/10/12 10:06:22;;;;;;;14.68;6.00;;;;;;;;;;6089032;23;20320;-75
2022/10/12 10:08:48;;;;;;;13.70;5.47;;;;;;;;;;6091199;23;20016;-74
2022/10/12 10:11:16;;;;;;;21.85;5.82;;;;;;;;;;6116735;23;20012;-74
2022/10/12 10:13:47;;;;;;;14.88;5.80;;;;;;;;;;6115805;23;20010;-74
2022/10/12 10:16:15;;;;;;;;;;;;;;;;;;6116195;23;20009;-75
2022/10/12 10:18:48;;;;;;;25.75;9.15;;;;;;;;;;6116813;23;19908;-75
2022/10/12 10:21:17;;;;;;;17.20;6.90;;;;;;;;;;6114467;23;20006;-74
2022/10/12 10:23:50;;;;;;;12.02;5.55;;;;;;;;;;6116112;23;20486;-74
2022/10/12 10:26:18;;;;;;;18.17;5.57;;;;;;;;;;6116815;23;20009;-75
2022/10/12 10:28:46;;;;;;;16.52;5.00;;;;;;;;;;6088684;23;20391;-74
2022/10/12 10:31:16;;;;;;;10.65;5.07;;;;;;;;;;6115952;23;20442;-73
2022/10/12 10:33:42;;;;;;;15.27;5.68;;;;;;;;;;6116887;23;20474;-74
2022/10/12 10:36:19;;;;;;;13.98;5.32;;;;;;;;;;6114664;23;20008;-78
2022/10/12 10:39:05;;;;;;;16.85;5.65;;;;;;;;;;6116753;23;20013;-74
2022/10/12 10:41:35;;;;;;;17.25;5.75;;;;;;;;;;6115966;23;20016;-74
2022/10/12 10:44:02;;;;;;;15.50;5.88;;;;;;;;;;6090022;23;20018;-74
2022/10/12 10:46:31;;;;;;;10.68;5.15;;;;;;;;;;6114355;23;20077;-74
2022/10/12 10:49:00;;;;;;;13.73;5.80;;;;;;;;;;6090142;23;20191;-73
2022/10/12 10:51:45;;;;;;;12.70;5.47;;;;;;;;;;6089555;23;20006;-75
2022/10/12 10:54:23;;;;;;;17.02;5.90;;;;;;;;;;6114000;23;19998;-75
2022/10/12 10:57:01;;;;;;;17.42;5.60;;;;;;;;;;6116382;23;20097;-76
2022/10/12 10:59:27;;;;;;;12.55;6.10;;;;;;;;;;6116486;23;19998;-73
2022/10/12 11:01:59;;;;;;;12.93;5.60;;;;;;;;;;6089429;23;20033;-76
2022/10/12 11:04:25;;;;;;;11.15;5.38;;;;;;;;;;6090255;23;20026;-75
2022/10/12 11:06:54;;;;;;;8.77;4.50;;;;;;;;;;6114126;23;20076;-75
2022/10/12 11:09:24;;;;;;;13.20;5.72;;;;;;;;;;6090195;23;20322;-73
2022/10/12 11:11:56;;;;;;;14.73;5.43;;;;;;;;;;6115641;23;20323;-75
2022/10/12 11:14:27;;;;;;;13.65;5.30;;;;;;;;;;6090733;23;20006;-75
2022/10/12 11:17:03;;;;;;;14.77;6.07;;;;;;;;;;6114573;23;20002;-74
2022/10/12 11:19:33;;;;;;;13.10;5.95;;;;;;;;;;6090726;23;20019;-75
2022/10/12 11:22:02;;;;;;;16.17;6.20;;;;;;;;;;6116151;23;19998;-74
2022/10/12 11:24:47;;;;;;;18.27;5.88;;;;;;;;;;6116065;23;20017;-74
2022/10/12 11:27:16;;;;;;;15.23;5.35;;;;;;;;;;6113768;23;20010;-75
2022/10/12 11:29:42;;;;;;;14.52;6.10;;;;;;;;;;6115982;23;20010;-74
2022/10/12 11:32:11;;;;;;;16.40;5.95;;;;;;;;;;6116385;23;20010;-75
2022/10/12 11:34:45;;;;;;;9.98;5.43;;;;;;;;;;6116218;23;20115;-73
2022/10/12 11:37:16;;;;;;;10.05;6.10;;;;;;;;;;6113935;23;20065;-75
2022/10/12 11:39:44;;;;;;;18.08;5.78;;;;;;;;;;6115817;23;20013;-74
2022/10/12 11:42:12;;;;;;;16.42;6.65;;;;;;;;;;6089923;23;20033;-75
2022/10/12 11:44:43;;;;;;;14.70;5.82;;;;;;;;;;6116716;23;20068;-75
2022/10/12 11:47:12;;;;;;;12.63;5.18;;;;;;;;;;6115183;23;20001;-74
2022/10/12 11:49:56;;;;;;;15.77;6.95;;;;;;;;;;6113054;23;20030;-74
2022/10/12 11:52:24;;;;;;;15.43;6.15;;;;;;;;;;6115561;23;20006;-74
2022/10/12 11:55:19;;;;;;;19.60;7.57;;;;;;;;;;6089327;23;20033;-77
2022/10/12 11:57:46;;;;;;;12.30;5.70;;;;;;;;;;6086612;23;20018;-75
2022/10/12 12:00:18;;;;;;;10.98;4.88;;;;;;;;;;6114401;23;20410;-75
2022/10/12 12:02:44;;;;;;;;;;;;;;;;;;6116214;23;20012;-75
2022/10/12 12:05:14;;;;;;;18.73;5.65;;;;;;;;;;6115461;23;19975;-74
2022/10/12 12:07:52;;;;;;;8.95;4.97;;;;;;;;;;6114993;23;20064;-74
2022/10/12 12:10:30;;;;;;;9.40;5.18;;;;;;;;;;6114246;23;20009;-82
2022/10/12 12:13:14;;;;;;;10.10;5.60;;;;;;;;;;6116804;23;20084;-75
2022/10/12 12:15:41;;;;;;;15.43;4.75;;;;;;;;;;6089270;23;20002;-75
2022/10/12 12:18:16;;;;;;;16.42;5.88;;;;;;;;;;6107346;23;20455;-75
2022/10/12 12:20:42;;;;;;;12.85;5.13;;;;;;;;;;6109975;23;20002;-76
2022/10/12 12:23:24;;;;;;;13.52;5.25;;;;;;;;;;6084212;23;20013;-75
2022/10/12 12:26:05;;;;;;;12.68;5.85;;;;;;;;;;6104860;23;20097;-78
2022/10/12 12:28:32;;;;;;;17.33;6.57;;;;;;;;;;6108251;23;20009;-77
2022/10/12 12:31:07;;;;;;;9.73;6.03;;;;;;;;;;6107306;23;20085;-79
2022/10/12 12:33:40;;;;;;;12.65;5.32;;;;;;;;;;6109426;23;20398;-78
2022/10/12 12:36:27;;;;;;;10.07;5.22;;;;;;;;;;6106620;23;20010;-79
2022/10/12 12:38:53;;;;;;;13.00;5.63;;;;;;;;;;6111189;23;20064;-78
2022/10/12 12:41:20;;;;;;;9.23;4.88;;;;;;;;;;6109072;23;20006;-77
2022/10/12 12:43:50;;;;;;;15.88;6.13;;;;;;;;;;6110899;23;20531;-78
2022/10/12 12:46:16;;;;;;;15.15;5.70;;;;;;;;;;6111696;23;20178;-78
2022/10/12 12:48:56;;;;;;;11.30;5.70;;;;;;;;;;6112168;23;20033;-77
2022/10/12 12:51:23;;;;;;;12.25;6.32;;;;;;;;;;6084179;23;20330;-78
2022/10/12 12:53:53;;;;;;;18.75;6.78;;;;;;;;;;6085285;23;20032;-78
2022/10/12 12:56:40;;;;;;;13.35;5.80;;;;;;;;;;6110819;23;20018;-77
2022/10/12 12:59:35;;;;;;;13.05;6.18;;;;;;;;;;6111525;23;20010;-77
2022/10/12 13:02:17;;;;;;;11.93;6.20;;;;;;;;;;6004577;23;20012;-77
2022/10/12 13:04:49;;;;;;;10.52;5.50;;;;;;;;;;6110566;23;20312;-77
2022/10/12 13:07:21;;;;;;;11.50;6.32;;;;;;;;;;6110895;23;20002;-77
2022/10/12 13:09:57;;;;;;;17.08;6.35;;;;;;;;;;6110589;23;20878;-77
2022/10/12 13:12:23;;;;;;;10.02;5.55;;;;;;;;;;6109043;23;20002;-77
2022/10/12 13:14:52;;;;;;;12.85;5.68;;;;;;;;;;6108759;23;20005;-77
2022/10/12 13:17:31;;;;;;;17.77;7.38;;;;;;;;;;6107617;23;20005;-77
2022/10/12 13:19:58;;;;;;;14.32;7.00;;;;;;;;;;6109089;23;20076;-76
2022/10/12 13:22:29;;;;;;;9.95;5.85;;;;;;;;;;6109241;23;20029;-75
2022/10/12 13:24:59;;;;;;;11.25;6.13;;;;;;;;;;6107192;23;20087;-75
2022/10/12 13:27:31;;;;;;;14.45;6.50;;;;;;;;;;6108750;23;19998;-77
2022/10/12 13:30:05;;;;;;;11.38;6.38;;;;;;;;;;6110465;23;20005;-75
2022/10/12 13:32:33;;;;;;;14.13;7.15;;;;;;;;;;6110863;23;20013;-77
2022/10/12 13:35:17;;;;;;;9.77;6.50;;;;;;;;;;6110907;23;20001;-75
2022/10/12 13:37:43;;;;;;;9.20;6.47;;;;;;;;;;6108984;23;20006;-75
2022/10/12 13:40:29;;;;;;;14.98;7.70;;;;;;;;;;6110756;23;20991;-76
2022/10/12 13:42:55;;;;;;;9.40;6.18;;;;;;;;;;6110401;23;20006;-75
2022/10/12 13:45:21;;;;;;;13.15;7.20;;;;;;;;;;6110922;23;20012;-76
2022/10/12 13:47:47;;;;;;;11.75;6.60;;;;;;;;;;6110687;23;19997;-75
2022/10/12 13:50:18;;;;;;;15.05;7.65;;;;;;;;;;6110425;23;20060;-74
2022/10/12 13:52:52;;;;;;;16.00;7.77;;;;;;;;;;6108536;23;20034;-76
2022/10/12 13:55:18;;;;;;;11.38;6.75;;;;;;;;;;6109655;23;20021;-74
2022/10/12 13:57:47;;;;;;;10.48;6.78;;;;;;;;;;6110164;23;20013;-78
2022/10/12 14:00:13;;;;;;;11.07;7.78;;;;;;;;;;6109083;23;20081;-75
2022/10/12 14:02:39;;;;;;;19.85;8.27;;;;;;;;;;6110246;23;20010;-75
2022/10/12 14:05:14;;;;;;;13.93;6.68;;;;;;;;;;6108231;23;20317;-76
2022/10/12 14:07:41;;;;;;;12.00;7.35;;;;;;;;;;6110688;23;20008;-74
2022/10/12 14:10:12;;;;;;;10.85;6.72;;;;;;;;;;6109974;23;20041;-75
2022/10/12 14:12:39;;;;;;;19.60;7.83;;;;;;;;;;6109832;23;20059;-76
2022/10/12 14:15:06;;;;;;;12.35;7.82;;;;;;;;;;6109646;23;20033;-77
2022/10/12 14:17:32;;;;;;;9.35;7.35;;;;;;;;;;6082841;23;20388;-75
2022/10/12 14:20:14;;;;;;;13.88;7.40;;;;;;;;;;6108182;23;20448;-75
2022/10/12 14:22:40;;;;;;;;;;;;;;;;;;6084358;23;20012;-76
2022/10/12 14:25:25;;;;;;;14.52;8.18;;;;;;;;;;6110320;23;19995;-77
2022/10/12 14:27:55;;;;;;;13.40;7.97;;;;;;;;;;6109358;23;20006;-77
2022/10/12 14:30:28;;;;;;;14.50;8.00;;;;;;;;;;6109658;23;20002;-75
2022/10/12 14:32:55;;;;;;;22.55;8.77;;;;;;;;;;6109382;23;20080;-75
2022/10/12 14:35:23;;;;;;;17.73;8.23;;;;;;;;;;6107423;23;19998;-75
2022/10/12 14:37:51;;;;;;;11.05;7.03;;;;;;;;;;6109916;23;20045;-76
2022/10/12 14:40:20;;;;;;;14.45;7.65;;;;;;;;;;6109493;23;20486;-77
2022/10/12 14:43:06;;;;;;;12.73;7.63;;;;;;;;;;6108085;23;20045;-77
2022/10/12 14:45:33;;;;;;;12.00;7.75;;;;;;;;;;6110368;23;20068;-76